Time;durP1;ratioP1;P1;durP2;ratioP2;P2;SDS_P1;SDS_P2;PMS_P1;PMS_P2;Temp;Humidity;BMP_temperature;BMP_pressure;BME280_temperature;BME280_humidity;BME280_pressure;Samples;Min_cycle;Max_cycle;Signal;HPM_P1;HPM_P2
2023/11/13 00:02:15;;;;;;;;;;;2.80;99.90;;;;;;5073696;28;20315;-74
2023/11/13 00:04:41;;;;;;;;;;;2.80;99.90;;;;;;5091692;28;19938;-75
2023/11/13 00:07:06;;;;;;;;;;;2.70;99.90;;;;;;5072956;28;19908;-74
2023/11/13 00:09:32;;;;;;;;;;;2.60;99.90;;;;;;5072685;28;19920;-75
2023/11/13 00:11:58;;;;;;;;;;;2.90;99.90;;;;;;5090820;28;20291;-74
2023/11/13 00:14:23;;;;;;;;;;;2.90;99.90;;;;;;5072779;28;19938;-74
2023/11/13 00:16:49;;;;;;;;;;;2.90;99.90;;;;;;5073043;28;19915;-74
2023/11/13 00:19:14;;;;;;;;;;;3.20;99.90;;;;;;5090733;28;19904;-74
2023/11/13 00:21:40;;;;;;;;;;;3.20;99.90;;;;;;5072844;28;19904;-74
2023/11/13 00:24:06;;;;;;;;;;;3.20;99.90;;;;;;5073134;28;19908;-74
2023/11/13 00:26:32;;;;;;;;;;;3.20;99.90;;;;;;5072802;28;20010;-75
2023/11/13 00:28:58;;;;;;;;;;;3.20;99.90;;;;;;5073625;28;20061;-75
2023/11/13 00:31:23;;;;;;;;;;;3.30;99.90;;;;;;5073485;28;19927;-74
2023/11/13 00:33:49;;;;;;;;;;;3.20;99.90;;;;;;5091208;28;20380;-74
2023/11/13 00:36:15;;;;;;;;;;;3.20;99.90;;;;;;5091026;28;20375;-74
2023/11/13 00:38:40;;;;;;;;;;;3.20;99.90;;;;;;5091295;28;19914;-74
2023/11/13 00:41:12;;;;;;;;;;;3.20;99.90;;;;;;5072865;28;20040;-74
2023/11/13 00:43:39;;;;;;;;;;;3.30;99.90;;;;;;5073211;28;19904;-74
2023/11/13 00:46:05;;;;;;;;;;;3.40;99.90;;;;;;5073881;28;19903;-74
2023/11/13 00:48:32;;;;;;;;;;;3.40;99.90;;;;;;5092150;28;19920;-75
2023/11/13 00:50:57;;;;;;;;;;;3.40;99.90;;;;;;5092688;28;19952;-75
2023/11/13 00:53:23;;;;;;;;;;;3.40;99.90;;;;;;5090233;28;19985;-74
2023/11/13 00:55:50;;;;;;;;;;;3.30;99.90;;;;;;5072239;28;19904;-75
2023/11/13 00:58:16;;;;;;;;;;;3.50;99.90;;;;;;5090044;28;20536;-74
2023/11/13 01:00:42;;;;;;;;;;;3.50;99.90;;;;;;5090134;28;20003;-74
2023/11/13 01:03:07;;;;;;;;;;;3.40;99.90;;;;;;5072300;28;19991;-74
2023/11/13 01:05:33;;;;;;;;;;;3.50;99.90;;;;;;5090232;28;19908;-75
2023/11/13 01:07:58;;;;;;;;;;;3.50;99.90;;;;;;5090157;28;20726;-74
2023/11/13 01:10:25;;;;;;;;;;;3.60;99.90;;;;;;5090239;28;19965;-74
2023/11/13 01:12:50;;;;;;;;;;;3.40;99.90;;;;;;5090773;28;20003;-74
2023/11/13 01:15:16;;;;;;;;;;;3.30;99.90;;;;;;5072175;28;19999;-74
2023/11/13 01:17:41;;;;;;;;;;;3.30;99.90;;;;;;5074295;28;19904;-74
2023/11/13 01:20:08;;;;;;;;;;;3.30;99.90;;;;;;5094042;28;20685;-74
2023/11/13 01:22:34;;;;;;;;;;;3.50;99.90;;;;;;5094058;28;19908;-74
2023/11/13 01:24:59;;;;;;;;;;;3.60;99.90;;;;;;5075379;28;19957;-73
2023/11/13 01:27:25;;;;;;;;;;;3.60;99.90;;;;;;5075419;28;19958;-74
2023/11/13 01:29:50;;;;;;;;;;;3.70;99.90;;;;;;5093908;28;19926;-74
2023/11/13 01:32:16;;;;;;;;;;;3.70;99.90;;;;;;5094269;28;19908;-74
2023/11/13 01:34:41;;;;;;;;;;;3.70;99.90;;;;;;5093939;28;19999;-75
2023/11/13 01:37:08;;;;;;;;;;;3.80;99.90;;;;;;5094051;28;19954;-74
2023/11/13 01:39:34;;;;;;;;;;;3.80;99.90;;;;;;5075701;28;20346;-74
2023/11/13 01:42:00;;;;;;;;;;;3.80;99.90;;;;;;5093690;28;19908;-74
2023/11/13 01:44:25;;;;;;;;;;;3.80;99.90;;;;;;5075005;28;19970;-74
2023/11/13 01:46:51;;;;;;;;;;;3.80;99.90;;;;;;5092984;28;19995;-74
2023/11/13 01:49:16;;;;;;;;;;;3.80;99.90;;;;;;5074835;28;19916;-74
2023/11/13 01:51:42;;;;;;;;;;;3.90;99.90;;;;;;5093666;28;19915;-75
2023/11/13 01:54:08;;;;;;;;;;;4.00;99.90;;;;;;5071060;28;19908;-74
2023/11/13 01:56:34;;;;;;;;;;;4.00;99.90;;;;;;5062188;28;20388;-74
2023/11/13 01:59:00;;;;;;;;;;;4.00;99.90;;;;;;5060754;28;20365;-74
2023/11/13 02:01:26;;;;;;;;;;;4.10;99.90;;;;;;5072726;28;19904;-74
2023/11/13 02:03:55;;;;;;;;;;;4.30;99.90;;;;;;5073085;28;19904;-74
2023/11/13 02:06:22;;;;;;;;;;;4.10;99.90;;;;;;5072611;28;19908;-73
2023/11/13 02:08:48;;;;;;;;;;;4.00;99.90;;;;;;5072443;28;19947;-73
2023/11/13 02:11:15;;;;;;;;;;;4.00;99.90;;;;;;5054498;28;20372;-74
2023/11/13 02:13:40;;;;;;;;;;;4.10;99.90;;;;;;5072726;28;20381;-74
2023/11/13 02:16:06;;;;;;;;;;;4.10;99.90;;;;;;5072572;28;19915;-74
2023/11/13 02:18:35;;;;;;;;;;;4.20;99.90;;;;;;5054309;28;19908;-76
2023/11/13 02:21:01;;;;;;;;;;;4.40;99.90;;;;;;5054917;28;20340;-74
2023/11/13 02:23:26;;;;;;;;;;;4.50;99.90;;;;;;5054383;28;19962;-75
2023/11/13 02:25:53;;;;;;;;;;;4.60;99.90;;;;;;5072305;28;19999;-73
2023/11/13 02:28:19;;;;;;;;;;;4.70;99.90;;;;;;5053112;28;19904;-74
2023/11/13 02:30:45;;;;;;;;;;;4.70;99.90;;;;;;5054227;28;19908;-75
2023/11/13 02:33:10;;;;;;;;;;;4.70;99.90;;;;;;5072331;28;20404;-74
2023/11/13 02:35:36;;;;;;;;;;;4.60;99.90;;;;;;5072488;28;20364;-74
2023/11/13 02:38:01;;;;;;;;;;;4.60;99.90;;;;;;5054183;28;20344;-74
2023/11/13 02:40:27;;;;;;;;;;;4.70;99.90;;;;;;5072195;28;19908;-75
2023/11/13 02:42:53;;;;;;;;;;;4.70;99.90;;;;;;5054464;28;20353;-74
2023/11/13 02:45:18;;;;;;;;;;;4.80;99.90;;;;;;5071059;28;19908;-73
2023/11/13 02:47:43;;;;;;;;;;;4.90;99.90;;;;;;5072307;28;19916;-74
2023/11/13 02:50:12;;;;;;;;;;;4.90;99.90;;;;;;5054535;28;19961;-74
2023/11/13 02:52:38;;;;;;;;;;;4.80;99.90;;;;;;5072516;28;20365;-74
2023/11/13 02:55:05;;;;;;;;;;;5.00;99.90;;;;;;5072694;28;19941;-74
2023/11/13 02:57:30;;;;;;;;;;;5.00;99.90;;;;;;5054730;28;19936;-74
2023/11/13 02:59:56;;;;;;;;;;;5.00;99.90;;;;;;5055107;28;19967;-74
2023/11/13 03:02:22;;;;;;;;;;;5.10;99.90;;;;;;5073190;28;20117;-75
2023/11/13 03:04:48;;;;;;;;;;;5.00;99.90;;;;;;5053640;28;19909;-74
2023/11/13 03:07:13;;;;;;;;;;;5.00;99.90;;;;;;5071517;28;19908;-74
2023/11/13 03:09:39;;;;;;;;;;;4.90;99.90;;;;;;5070277;28;19939;-74
2023/11/13 03:12:04;;;;;;;;;;;4.80;99.90;;;;;;5053413;28;20368;-74
2023/11/13 03:14:30;;;;;;;;;;;5.00;99.90;;;;;;5071333;28;19916;-74
2023/11/13 03:16:56;;;;;;;;;;;5.20;99.90;;;;;;5071232;28;20331;-74
2023/11/13 03:19:22;;;;;;;;;;;5.20;99.90;;;;;;5071458;28;19908;-75
2023/11/13 03:21:47;;;;;;;;;;;5.30;99.90;;;;;;5071624;28;20265;-74
2023/11/13 03:24:13;;;;;;;;;;;5.20;99.90;;;;;;5071463;28;19908;-74
2023/11/13 03:26:38;;;;;;;;;;;5.20;99.90;;;;;;5053135;28;19919;-74
2023/11/13 03:29:04;;;;;;;;;;;5.30;99.90;;;;;;5071814;28;19912;-74
2023/11/13 03:31:30;;;;;;;;;;;5.40;99.90;;;;;;5053025;28;19919;-75
2023/11/13 03:33:55;;;;;;;;;;;5.40;99.90;;;;;;5069743;28;19916;-75
2023/11/13 03:36:21;;;;;;;;;;;5.30;99.90;;;;;;5071017;28;20581;-74
2023/11/13 03:38:47;;;;;;;;;;;5.20;99.90;;;;;;5052788;28;20367;-74
2023/11/13 03:41:12;;;;;;;;;;;5.20;99.90;;;;;;5069472;28;19989;-74
2023/11/13 03:43:38;;;;;;;;;;;5.20;99.90;;;;;;5069536;28;19987;-74
2023/11/13 03:46:03;;;;;;;;;;;5.30;99.90;;;;;;5069507;28;20321;-75
2023/11/13 03:48:29;;;;;;;;;;;5.40;99.90;;;;;;5070233;28;19963;-74
2023/11/13 03:50:54;;;;;;;;;;;5.30;99.90;;;;;;5052649;28;19904;-75
2023/11/13 03:53:20;;;;;;;;;;;5.30;99.90;;;;;;5070592;28;20456;-75
2023/11/13 03:55:46;;;;;;;;;;;5.30;99.90;;;;;;5052444;28;19966;-75
2023/11/13 03:58:12;;;;;;;;;;;5.30;99.90;;;;;;5069089;28;20003;-74
2023/11/13 04:00:38;;;;;;;;;;;5.30;99.90;;;;;;5070424;28;19908;-74
2023/11/13 04:03:03;;;;;;;;;;;5.40;99.90;;;;;;5070845;28;20257;-74
2023/11/13 04:05:29;;;;;;;;;;;5.50;99.90;;;;;;5053175;28;19912;-75
2023/11/13 04:07:55;;;;;;;;;;;5.40;99.90;;;;;;5072293;28;19904;-74
2023/11/13 04:10:21;;;;;;;;;;;5.40;99.90;;;;;;5090424;28;20414;-75
2023/11/13 04:12:47;;;;;;;;;;;5.40;99.90;;;;;;5090627;28;19941;-75
2023/11/13 04:15:13;;;;;;;;;;;5.30;99.90;;;;;;5072948;28;19908;-75
2023/11/13 04:17:39;;;;;;;;;;;5.30;99.90;;;;;;5090706;28;20415;-75
2023/11/13 04:20:06;;;;;;;;;;;5.30;99.90;;;;;;5072293;28;19930;-74
2023/11/13 04:22:35;;;;;;;;;;;5.40;99.90;;;;;;5072297;28;19908;-74
2023/11/13 04:25:01;;;;;;;;;;;5.40;99.90;;;;;;5090647;28;19908;-75
2023/11/13 04:27:27;;;;;;;;;;;5.40;99.90;;;;;;5090259;28;19946;-75
2023/11/13 04:29:52;;;;;;;;;;;5.30;99.90;;;;;;5090114;28;19963;-74
2023/11/13 04:32:19;;;;;;;;;;;5.30;99.90;;;;;;5090275;28;19904;-75
2023/11/13 04:34:44;;;;;;;;;;;5.40;99.90;;;;;;5082028;28;19908;-75
2023/11/13 04:37:10;;;;;;;;;;;5.40;99.90;;;;;;5072087;28;20326;-75
2023/11/13 04:39:35;;;;;;;;;;;5.40;99.90;;;;;;5090493;28;20361;-75
2023/11/13 04:42:01;;;;;;;;;;;5.40;99.90;;;;;;5090497;28;19904;-74
2023/11/13 04:44:27;;;;;;;;;;;5.50;99.90;;;;;;5089990;28;20287;-74
2023/11/13 04:46:52;;;;;;;;;;;5.60;99.90;;;;;;5071902;28;19919;-75
2023/11/13 04:49:17;;;;;;;;;;;5.50;99.90;;;;;;5090432;28;19916;-75
2023/11/13 04:51:43;;;;;;;;;;;5.60;99.90;;;;;;5091287;28;19938;-75
2023/11/13 04:54:09;;;;;;;;;;;5.60;99.90;;;;;;5095157;28;19947;-75
2023/11/13 04:56:34;;;;;;;;;;;6.00;99.90;;;;;;5094780;28;19908;-75
2023/11/13 04:59:00;;;;;;;;;;;5.90;99.90;;;;;;5095203;28;20292;-75
2023/11/13 05:01:25;;;;;;;;;;;5.70;99.90;;;;;;5094625;28;20399;-74
2023/11/13 05:03:51;;;;;;;;;;;5.90;99.90;;;;;;5076973;28;19969;-74
2023/11/13 05:06:17;;;;;;;;;;;5.80;99.90;;;;;;5076723;28;19904;-74
2023/11/13 05:08:44;;;;;;;;;;;5.80;99.90;;;;;;5076585;28;20264;-75
2023/11/13 05:11:21;;;;;;;;;;;5.70;99.90;;;;;;5077731;28;19931;-75
2023/11/13 05:13:47;;;;;;;;;;;5.70;99.90;;;;;;5076347;28;19904;-75
2023/11/13 05:16:20;;;;;;;;;;;5.80;99.90;;;;;;5075569;28;20058;-74
2023/11/13 05:18:46;;;;;;;;;;;5.80;99.90;;;;;;5075415;28;19953;-75
2023/11/13 05:21:12;;;;;;;;;;;5.80;99.90;;;;;;5075570;28;20291;-74
2023/11/13 05:23:37;;;;;;;;;;;5.90;99.90;;;;;;5093581;28;19975;-75
2023/11/13 05:26:04;;;;;;;;;;;5.90;99.90;;;;;;5093673;28;19908;-74
2023/11/13 05:28:29;;;;;;;;;;;5.90;99.90;;;;;;5093270;28;20038;-75
2023/11/13 05:30:55;;;;;;;;;;;5.90;99.90;;;;;;5075176;28;19947;-74
2023/11/13 05:33:20;;;;;;;;;;;5.90;99.90;;;;;;5075473;28;20364;-74
2023/11/13 05:35:46;;;;;;;;;;;5.80;99.90;;;;;;5094684;28;20380;-74
2023/11/13 05:38:12;;;;;;;;;;;5.80;99.90;;;;;;5075268;28;19912;-75
2023/11/13 05:40:37;;;;;;;;;;;5.90;99.90;;;;;;5075060;28;20395;-75
2023/11/13 05:43:03;;;;;;;;;;;6.00;99.90;;;;;;5093262;28;19915;-74
2023/11/13 05:45:29;;;;;;;;;;;6.00;99.90;;;;;;5075320;28;20350;-74
2023/11/13 05:47:54;;;;;;;;;;;5.90;99.90;;;;;;5093341;28;19924;-74
2023/11/13 05:50:20;;;;;;;;;;;6.00;99.90;;;;;;5075175;28;19923;-74
2023/11/13 05:52:47;;;;;;;;;;;5.90;99.90;;;;;;5093446;28;20398;-74
2023/11/13 05:55:12;;;;;;;;;;;6.00;99.90;;;;;;5075117;28;19908;-74
2023/11/13 05:57:38;;;;;;;;;;;6.00;99.90;;;;;;5093047;28;19913;-74
2023/11/13 06:00:04;;;;;;;;;;;6.00;99.90;;;;;;5093406;28;19923;-74
2023/11/13 06:02:29;;;;;;;;;;;6.20;99.90;;;;;;5092704;28;20275;-74
2023/11/13 06:04:55;;;;;;;;;;;6.20;99.90;;;;;;5091822;28;20006;-74
2023/11/13 06:07:20;;;;;;;;;;;6.20;99.90;;;;;;5075007;28;19998;-74
2023/11/13 06:09:48;;;;;;;;;;;6.30;99.90;;;;;;5074691;28;19958;-74
2023/11/13 06:12:13;;;;;;;;;;;6.10;99.90;;;;;;5074506;28;19919;-74
2023/11/13 06:14:39;;;;;;;;;;;6.10;99.90;;;;;;5092799;28;19912;-74
2023/11/13 06:17:04;;;;;;;;;;;6.20;99.90;;;;;;5092932;28;19908;-74
2023/11/13 06:19:30;;;;;;;;;;;6.10;99.90;;;;;;5074674;28;20026;-74
2023/11/13 06:21:55;;;;;;;;;;;6.10;99.90;;;;;;5074540;28;20368;-74
2023/11/13 06:24:21;;;;;;;;;;;6.20;99.90;;;;;;5092733;28;20289;-75
2023/11/13 06:26:46;;;;;;;;;;;6.20;99.90;;;;;;5092435;28;19908;-74
2023/11/13 06:29:12;;;;;;;;;;;6.00;99.90;;;;;;5092671;28;20318;-75
2023/11/13 06:31:37;;;;;;;;;;;6.20;99.90;;;;;;5092542;28;19908;-75
2023/11/13 06:34:03;;;;;;;;;;;6.30;99.90;;;;;;5092641;28;19904;-74
2023/11/13 06:36:30;;;;;;;;;;;6.30;99.90;;;;;;5074150;28;20374;-75
2023/11/13 06:38:56;;;;;;;;;;;6.30;99.90;;;;;;5074620;28;20249;-74
2023/11/13 06:41:23;;;;;;;;;;;6.30;99.90;;;;;;5092519;28;20380;-74
2023/11/13 06:43:49;;;;;;;;;;;6.30;99.90;;;;;;5074258;28;19904;-74
2023/11/13 06:46:16;;;;;;;;;;;6.30;99.90;;;;;;5092537;28;19908;-75
2023/11/13 06:48:44;;;;;;;;;;;6.20;99.90;;;;;;5092163;28;20399;-75
2023/11/13 06:51:13;;;;;;;;;;;6.30;99.90;;;;;;5074109;28;20323;-75
2023/11/13 06:53:38;;;;;;;;;;;6.40;99.90;;;;;;5074112;28;20533;-74
2023/11/13 06:56:06;;;;;;;;;;;6.40;99.90;;;;;;5092353;28;19916;-74
2023/11/13 06:58:34;;;;;;;;;;;6.50;99.90;;;;;;5073933;28;19949;-75
2023/11/13 07:00:59;;;;;;;;;;;6.40;99.90;;;;;;5092329;28;20299;-75
2023/11/13 07:03:25;;;;;;;;;;;6.50;99.90;;;;;;5073857;28;19911;-74
2023/11/13 07:05:52;;;;;;;;;;;6.60;99.90;;;;;;5092185;28;20360;-74
2023/11/13 07:08:17;;;;;;;;;;;6.80;99.90;;;;;;5073635;28;19908;-75
2023/11/13 07:10:43;;;;;;;;;;;7.10;99.90;;;;;;5091962;28;19915;-74
2023/11/13 07:13:11;;;;;;;;;;;7.50;99.90;;;;;;5074298;28;20347;-74
2023/11/13 07:15:37;;;;;;;;;;;7.80;99.90;;;;;;5074192;28;19911;-74
2023/11/13 07:18:04;;;;;;;;;;;7.80;99.90;;;;;;5074648;28;19919;-75
2023/11/13 07:20:29;;;;;;;;;;;7.70;99.90;;;;;;5092915;28;20509;-74
2023/11/13 07:22:55;;;;;;;;;;;7.60;99.90;;;;;;5073423;28;19947;-74
2023/11/13 07:25:21;;;;;;;;;;;7.50;99.90;;;;;;5091554;28;19915;-75
2023/11/13 07:27:47;;;;;;;;;;;7.60;99.90;;;;;;5072869;28;19904;-75
2023/11/13 07:30:12;;;;;;;;;;;7.50;99.90;;;;;;5073197;28;19920;-75
2023/11/13 07:32:39;;;;;;;;;;;7.60;99.90;;;;;;5090970;28;20356;-74
2023/11/13 07:35:04;;;;;;;;;;;7.40;99.90;;;;;;5091224;28;19948;-74
2023/11/13 07:37:33;;;;;;;;;;;7.40;99.90;;;;;;5091061;28;19908;-75
2023/11/13 07:39:59;;;;;;;;;;;7.30;99.90;;;;;;5073181;28;19904;-74
2023/11/13 07:42:25;;;;;;;;;;;7.40;99.90;;;;;;5072788;28;19931;-74
2023/11/13 07:44:51;;;;;;;;;;;7.40;99.90;;;;;;5072891;28;20269;-74
2023/11/13 07:47:17;;;;;;;;;;;7.50;99.90;;;;;;5072611;28;19919;-74
2023/11/13 07:49:46;;;;;;;;;;;7.60;99.90;;;;;;5091068;28;20026;-74
2023/11/13 07:52:12;;;;;;;;;;;7.60;99.90;;;;;;5090949;28;19910;-74
2023/11/13 07:54:39;;;;;;;;;;;7.70;99.90;;;;;;5072992;28;19927;-75
2023/11/13 07:57:04;;;;;;;;;;;7.70;99.90;;;;;;5091236;28;19908;-75
2023/11/13 07:59:30;;;;;;;;;;;7.70;99.90;;;;;;5072487;28;19908;-75
2023/11/13 08:01:56;;;;;;;;;;;7.80;99.90;;;;;;5072455;28;19953;-74
2023/11/13 08:04:22;;;;;;;;;;;7.90;99.90;;;;;;5091136;28;20318;-74
2023/11/13 08:06:47;;;;;;;;;;;7.80;99.90;;;;;;5072234;28;20356;-74
2023/11/13 08:09:15;;;;;;;;;;;7.70;99.90;;;;;;5090644;28;19973;-74
2023/11/13 08:11:41;;;;;;;;;;;7.70;99.90;;;;;;5090679;28;19908;-74
2023/11/13 08:14:09;;;;;;;;;;;7.60;99.90;;;;;;5072503;28;20376;-74
2023/11/13 08:16:34;;;;;;;;;;;7.60;99.90;;;;;;5090258;28;19908;-74
2023/11/13 08:19:00;;;;;;;;;;;7.60;99.90;;;;;;5090600;28;19970;-75
2023/11/13 08:21:25;;;;;;;;;;;7.70;99.90;;;;;;5090536;28;19968;-74
2023/11/13 08:23:51;;;;;;;;;;;7.60;99.90;;;;;;5090580;28;19923;-75
2023/11/13 08:26:16;;;;;;;;;;;7.70;99.90;;;;;;5071546;28;20432;-74
2023/11/13 08:28:44;;;;;;;;;;;7.80;99.90;;;;;;5090252;28;20582;-74
2023/11/13 08:31:15;;;;;;;;;;;7.80;99.90;;;;;;5090503;28;19904;-75
2023/11/13 08:33:41;;;;;;;;;;;7.70;99.90;;;;;;5090208;28;19950;-74
2023/11/13 08:36:11;;;;;;;;;;;7.70;99.90;;;;;;5090160;28;19994;-75
2023/11/13 08:38:36;;;;;;;;;;;7.70;99.90;;;;;;5090086;28;19914;-74
2023/11/13 08:41:03;;;;;;;;;;;7.80;99.90;;;;;;5090454;28;20002;-75
2023/11/13 08:43:31;;;;;;;;;;;7.90;99.90;;;;;;5071974;28;19908;-74
2023/11/13 08:45:59;;;;;;;;;;;7.90;99.90;;;;;;5072275;28;19927;-75
2023/11/13 08:48:24;;;;;;;;;;;7.90;99.90;;;;;;5089949;28;19935;-74
2023/11/13 08:50:53;;;;;;;;;;;7.90;99.90;;;;;;5072068;28;19916;-74
2023/11/13 08:53:20;;;;;;;;;;;7.90;99.90;;;;;;5090316;28;19927;-75
2023/11/13 08:55:45;;;;;;;;;;;8.00;99.90;;;;;;5072115;28;19965;-75
2023/11/13 08:58:10;;;;;;;;;;;7.90;99.90;;;;;;5090295;28;19977;-74
2023/11/13 09:00:43;;;;;;;;;;;7.80;99.90;;;;;;5089825;28;19955;-75
2023/11/13 09:03:09;;;;;;;;;;;8.00;99.90;;;;;;5071860;28;19904;-75
2023/11/13 09:05:35;;;;;;;;;;;8.10;99.90;;;;;;5071976;28;19929;-74
2023/11/13 09:08:03;;;;;;;;;;;8.30;99.90;;;;;;5072038;28;20010;-74
2023/11/13 09:10:29;;;;;;;;;;;8.20;99.90;;;;;;5090197;28;19973;-75
2023/11/13 09:13:01;;;;;;;;;;;8.30;99.90;;;;;;5090249;28;19904;-75
2023/11/13 09:15:27;;;;;;;;;;;8.30;99.90;;;;;;5090093;28;19995;-75
2023/11/13 09:17:54;;;;;;;;;;;8.30;99.90;;;;;;5072425;28;19962;-74
2023/11/13 09:20:20;;;;;;;;;;;8.20;99.90;;;;;;5090428;28;19926;-75
2023/11/13 09:22:45;;;;;;;;;;;8.40;99.90;;;;;;5091132;28;19904;-74
2023/11/13 09:25:14;;;;;;;;;;;8.20;99.90;;;;;;5092219;28;19912;-75
2023/11/13 09:27:41;;;;;;;;;;;8.20;99.90;;;;;;5091434;28;19915;-75
2023/11/13 09:30:10;;;;;;;;;;;8.10;99.90;;;;;;5090099;28;19948;-74
2023/11/13 09:32:44;;;;;;;;;;;8.00;99.90;;;;;;5071499;28;19908;-74
2023/11/13 09:35:20;;;;;;;;;;;8.00;99.90;;;;;;5089778;28;19931;-74
2023/11/13 09:37:52;;;;;;;;;;;8.00;99.90;;;;;;5072167;28;20360;-75
2023/11/13 09:40:19;;;;;;;;;;;7.90;99.90;;;;;;5093927;28;19977;-75
2023/11/13 09:42:52;;;;;;;;;;;8.00;99.90;;;;;;5075054;28;20294;-75
2023/11/13 09:45:19;;;;;;;;;;;8.00;99.90;;;;;;5075381;28;19955;-75
2023/11/13 09:47:45;;;;;;;;;;;8.00;99.90;;;;;;5093299;28;19923;-74
2023/11/13 09:50:15;;;;;;;;;;;8.00;99.90;;;;;;5093218;28;19916;-75
2023/11/13 09:52:57;;;;;;;;;;;7.90;99.90;;;;;;5093131;28;20564;-75
2023/11/13 09:55:24;;;;;;;;;;;7.90;99.90;;;;;;5074992;28;19908;-74
2023/11/13 09:57:52;;;;;;;;;;;7.90;99.90;;;;;;5092849;28;19904;-75
2023/11/13 10:00:25;;;;;;;;;;;8.10;99.90;;;;;;5093085;28;19923;-74
2023/11/13 10:02:51;;;;;;;;;;;8.30;99.90;;;;;;5093137;28;19915;-75
2023/11/13 10:05:19;;;;;;;;;;;8.40;99.90;;;;;;5092975;28;19908;-74
2023/11/13 10:07:47;;;;;;;;;;;8.40;99.90;;;;;;5093077;28;19912;-75
2023/11/13 10:10:19;;;;;;;;;;;8.40;99.90;;;;;;5092930;28;19916;-75
2023/11/13 10:12:45;;;;;;;;;;;8.30;99.90;;;;;;5092807;28;19942;-74
2023/11/13 10:15:13;;;;;;;;;;;8.40;99.90;;;;;;5074588;28;19915;-73
2023/11/13 10:17:43;;;;;;;;;;;8.50;99.90;;;;;;5092942;28;20006;-75
2023/11/13 10:20:09;;;;;;;;;;;8.30;99.90;;;;;;5092826;28;19950;-74
2023/11/13 10:22:35;;;;;;;;;;;8.40;99.90;;;;;;5074640;28;19904;-74
2023/11/13 10:25:00;;;;;;;;;;;8.20;99.90;;;;;;5074524;28;19929;-75
2023/11/13 10:27:26;;;;;;;;;;;8.20;99.90;;;;;;5092651;28;19904;-75
2023/11/13 10:30:01;;;;;;;;;;;8.10;99.90;;;;;;5074162;28;20015;-74
2023/11/13 10:32:29;;;;;;;;;;;8.00;99.90;;;;;;5074443;28;20057;-74
2023/11/13 10:34:55;;;;;;;;;;;8.00;99.90;;;;;;5092361;28;19931;-74
2023/11/13 10:37:20;;;;;;;;;;;8.00;99.90;;;;;;5074107;28;20368;-74
2023/11/13 10:39:47;;;;;;;;;;;8.10;99.90;;;;;;5092311;28;20080;-74
2023/11/13 10:42:18;;;;;;;;;;;8.20;99.90;;;;;;5092419;28;19940;-74
2023/11/13 10:44:43;;;;;;;;;;;8.40;99.90;;;;;;5092122;28;19912;-74
2023/11/13 10:47:17;;;;;;;;;;;8.50;99.90;;;;;;5092201;28;20394;-75
2023/11/13 10:49:43;;;;;;;;;;;8.50;99.90;;;;;;5068898;28;20301;-74
2023/11/13 10:52:09;;;;;;;;;;;8.60;99.90;;;;;;5092155;28;20364;-75
2023/11/13 10:54:35;;;;;;;;;;;8.60;99.90;;;;;;5073916;28;19908;-74
2023/11/13 10:57:01;;;;;;;;;;;8.70;99.90;;;;;;5092250;28;19908;-74
2023/11/13 10:59:27;;;;;;;;;;;8.70;99.90;;;;;;5091759;28;19969;-74
2023/11/13 11:01:54;;;;;;;;;;;8.70;99.90;;;;;;5092173;28;19935;-75
2023/11/13 11:04:21;;;;;;;;;;;8.80;99.90;;;;;;5074004;28;20403;-75
2023/11/13 11:06:49;;;;;;;;;;;9.00;99.90;;;;;;5091907;28;19908;-75
2023/11/13 11:09:17;;;;;;;;;;;9.10;99.90;;;;;;5091975;28;20372;-74
2023/11/13 11:11:44;;;;;;;;;;;9.00;99.90;;;;;;5073934;28;19908;-75
2023/11/13 11:17:15;;;;;;;;;;;9.10;99.90;;;;;;5092387;28;20287;-75
2023/11/13 11:19:44;;;;;;;;;;;9.10;99.90;;;;;;5091990;28;19908;-74
2023/11/13 11:22:12;;;;;;;;;;;9.00;99.90;;;;;;5073661;28;19904;-75
2023/11/13 11:24:48;;;;;;;;;;;8.90;99.90;;;;;;5091873;28;19914;-75
2023/11/13 11:27:32;;;;;;;;;;;8.70;99.90;;;;;;5092160;28;19908;-74
2023/11/13 11:29:58;;;;;;;;;;;8.60;99.90;;;;;;5093178;28;20428;-76
2023/11/13 11:32:24;;;;;;;;;;;8.60;99.90;;;;;;5075180;28;20000;-74
2023/11/13 11:34:50;;;;;;;;;;;8.60;99.90;;;;;;5091289;28;19908;-75
2023/11/13 11:37:16;;;;;;;;;;;8.60;99.90;;;;;;5072798;28;19943;-75
2023/11/13 11:39:46;;;;;;;;;;;8.60;99.90;;;;;;5073099;28;20313;-75
2023/11/13 11:42:16;;;;;;;;;;;8.70;99.90;;;;;;5091076;28;20386;-75
2023/11/13 11:44:45;;;;;;;;;;;8.70;99.90;;;;;;5072864;28;19914;-75
2023/11/13 11:47:22;;;;;;;;;;;8.90;99.90;;;;;;5090886;28;19935;-75
2023/11/13 11:49:48;;;;;;;;;;;8.90;99.90;;;;;;5091015;28;19977;-74
2023/11/13 11:52:15;;;;;;;;;;;9.00;99.90;;;;;;5072839;28;20592;-74
2023/11/13 11:54:41;;;;;;;;;;;9.00;99.90;;;;;;5090557;28;19950;-74
2023/11/13 11:57:15;;;;;;;;;;;9.00;99.90;;;;;;5090469;28;19939;-74
2023/11/13 11:59:42;;;;;;;;;;;8.90;99.90;;;;;;5072500;28;19915;-74
2023/11/13 12:02:08;;;;;;;;;;;8.90;99.90;;;;;;5072619;28;20037;-75
2023/11/13 12:04:33;;;;;;;;;;;8.90;99.90;;;;;;5090575;28;20002;-75
2023/11/13 12:06:59;;;;;;;;;;;8.90;99.90;;;;;;5072744;28;19904;-75
2023/11/13 12:09:25;;;;;;;;;;;8.90;99.90;;;;;;5090830;28;19919;-75
2023/11/13 12:11:52;;;;;;;;;;;8.90;99.90;;;;;;5072647;28;19908;-74
2023/11/13 12:14:18;;;;;;;;;;;8.80;99.90;;;;;;5090623;28;19943;-74
2023/11/13 12:16:44;;;;;;;;;;;8.80;99.90;;;;;;5072120;28;20296;-74
2023/11/13 12:19:11;;;;;;;;;;;8.70;99.90;;;;;;5090550;28;19915;-75
2023/11/13 12:21:37;;;;;;;;;;;8.70;99.90;;;;;;5090544;28;20109;-74
2023/11/13 12:24:03;;;;;;;;;;;8.70;99.90;;;;;;5072622;28;19933;-75
2023/11/13 12:26:29;;;;;;;;;;;8.60;99.90;;;;;;5090531;28;19912;-74
2023/11/13 12:28:56;;;;;;;;;;;8.60;99.90;;;;;;5090358;28;19969;-75
2023/11/13 12:31:23;;;;;;;;;;;8.60;99.90;;;;;;5072024;28;19915;-75
2023/11/13 12:33:49;;;;;;;;;;;8.60;99.90;;;;;;5090461;28;19947;-74
2023/11/13 12:36:15;;;;;;;;;;;8.60;99.90;;;;;;5090642;28;20414;-74
2023/11/13 12:38:44;;;;;;;;;;;8.60;99.90;;;;;;5090275;28;20406;-74
2023/11/13 12:41:11;;;;;;;;;;;8.60;99.90;;;;;;5090422;28;19962;-74
2023/11/13 12:43:37;;;;;;;;;;;8.60;99.90;;;;;;5072185;28;19991;-74
2023/11/13 12:46:05;;;;;;;;;;;8.60;99.90;;;;;;5072608;28;20400;-74
2023/11/13 12:48:31;;;;;;;;;;;8.60;99.90;;;;;;5090136;28;19923;-74
2023/11/13 12:51:04;;;;;;;;;;;8.60;99.90;;;;;;5090026;28;20271;-75
2023/11/13 12:53:34;;;;;;;;;;;8.50;99.90;;;;;;5090330;28;19992;-74
2023/11/13 12:56:04;;;;;;;;;;;8.50;99.90;;;;;;5072264;28;19950;-75
2023/11/13 12:58:29;;;;;;;;;;;8.50;99.90;;;;;;5090161;28;19911;-74
2023/11/13 13:00:55;;;;;;;;;;;8.50;99.90;;;;;;5090215;28;19908;-75
2023/11/13 13:03:22;;;;;;;;;;;8.60;99.90;;;;;;5090282;28;20295;-74
2023/11/13 13:05:48;;;;;;;;;;;8.60;99.90;;;;;;5090127;28;19908;-74
2023/11/13 13:08:13;;;;;;;;;;;8.70;99.90;;;;;;5090239;28;19912;-74
2023/11/13 13:10:41;;;;;;;;;;;8.60;99.90;;;;;;5089989;28;20451;-75
2023/11/13 13:13:08;;;;;;;;;;;8.60;99.90;;;;;;5091509;28;19912;-74
2023/11/13 13:15:34;;;;;;;;;;;8.60;99.90;;;;;;5094428;28;19919;-75
2023/11/13 13:18:02;;;;;;;;;;;8.60;99.90;;;;;;5094302;28;19983;-75
2023/11/13 13:20:31;;;;;;;;;;;8.50;99.90;;;;;;5076134;28;19904;-75
2023/11/13 13:22:57;;;;;;;;;;;8.60;99.90;;;;;;5094281;28;19911;-74
2023/11/13 13:25:25;;;;;;;;;;;8.50;99.90;;;;;;5094336;28;20407;-74
2023/11/13 13:27:51;;;;;;;;;;;8.50;99.90;;;;;;5076522;28;19911;-73
2023/11/13 13:30:18;;;;;;;;;;;8.50;99.90;;;;;;5094558;28;20380;-74
2023/11/13 13:32:46;;;;;;;;;;;8.50;99.90;;;;;;5076052;28;19904;-74
2023/11/13 13:35:12;;;;;;;;;;;8.50;99.90;;;;;;5095603;28;19903;-75
2023/11/13 13:37:38;;;;;;;;;;;8.50;99.90;;;;;;5096091;28;20391;-76
2023/11/13 13:40:09;;;;;;;;;;;8.40;99.90;;;;;;5093758;28;19904;-75
2023/11/13 13:42:41;;;;;;;;;;;8.40;99.90;;;;;;5093741;28;19931;-74
2023/11/13 13:45:07;;;;;;;;;;;8.40;99.90;;;;;;5093538;28;20390;-75
2023/11/13 13:47:33;;;;;;;;;;;8.40;99.90;;;;;;5074720;28;19916;-75
2023/11/13 13:49:59;;;;;;;;;;;8.30;99.90;;;;;;5093239;28;20010;-75
2023/11/13 13:52:29;;;;;;;;;;;8.30;99.90;;;;;;5093168;28;20033;-74
2023/11/13 13:54:58;;;;;;;;;;;8.30;99.90;;;;;;5093324;28;19904;-75
2023/11/13 13:57:24;;;;;;;;;;;8.30;99.90;;;;;;5075380;28;20304;-74
2023/11/13 13:59:49;;;;;;;;;;;8.20;99.90;;;;;;5074977;28;19908;-75
2023/11/13 14:02:15;;;;;;;;;;;8.20;99.90;;;;;;5093171;28;20356;-75
2023/11/13 14:04:40;;;;;;;;;;;8.20;99.90;;;;;;5075001;28;19904;-74
2023/11/13 14:07:06;;;;;;;;;;;8.20;99.90;;;;;;5074726;28;20394;-75
2023/11/13 14:09:32;;;;;;;;;;;8.10;99.90;;;;;;5092795;28;20406;-75
2023/11/13 14:11:57;;;;;;;;;;;8.00;99.90;;;;;;5074927;28;19971;-74
2023/11/13 14:14:23;;;;;;;;;;;8.00;99.90;;;;;;5092836;28;19994;-74
2023/11/13 14:16:49;;;;;;;;;;;7.90;99.90;;;;;;5074430;28;19904;-74
2023/11/13 14:19:15;;;;;;;;;;;7.90;99.90;;;;;;5074623;28;19908;-75
2023/11/13 14:21:43;;;;;;;;;;;7.80;99.90;;;;;;5092691;28;19950;-75
2023/11/13 14:24:10;;;;;;;;;;;7.80;99.90;;;;;;5091775;28;19908;-75
2023/11/13 14:26:37;;;;;;;;;;;7.80;99.90;;;;;;5092461;28;20713;-74
2023/11/13 14:29:03;;;;;;;;;;;7.70;99.90;;;;;;5074693;28;19912;-75
2023/11/13 14:31:28;;;;;;;;;;;7.70;99.90;;;;;;5092667;28;19958;-75